East Lawrenceville, Pennsylvania
Current Conditions -  °F | °C
As of 4:53 PM on Sunday 25 Jan 2015 (Local Time) from KELM Reporting Station
Clear Clear  
Wind Chill: -13°   Ceiling: Unl
Heat Index: -7°   Visibility: 10mi
Dew Point: -11°   Wind: 9mph
Humidity: 71%   Direction: 30°NNE
Pressure: 29.9"   Gusts: NA
Location:  41.971°N, 77.1237°W
Report Text: KELM 252153Z AUTO 03008KT 10SM CLR M07/M11 A2990 RMK AO2 SLP138 T10671111
Loading
Personal Weather Stations






























Interactive Weather Map New forecast layout! Learn more

10-Day Weather Forecast

Advertisements
Track Severe Weather on mobile